Time;durP1;ratioP1;P1;durP2;ratioP2;P2;SDS_P1;SDS_P2;PMS_P1;PMS_P2;Temp;Humidity;BMP_temperature;BMP_pressure;BME280_temperature;BME280_humidity;BME280_pressure;Samples;Min_cycle;Max_cycle;Signal;HPM_P1;HPM_P2
2021/03/31 00:00:20;;;;;;;29.83;3.45;;;30.30;10.80;;;;;;5114792;27;20072;-64
2021/03/31 00:02:48;;;;;;;23.75;3.20;;;30.20;12.80;;;;;;5117984;27;20554;-63
2021/03/31 00:05:14;;;;;;;32.30;3.70;;;30.10;12.90;;;;;;5103139;27;20080;-63
2021/03/31 00:07:41;;;;;;;32.97;3.95;;;30.00;13.30;;;;;;5112784;27;20068;-65
2021/03/31 00:10:34;;;;;;;33.83;3.30;;;29.90;15.90;;;;;;5114773;27;20146;-66
2021/03/31 00:13:00;;;;;;;17.63;3.15;;;29.80;17.20;;;;;;5119626;27;20073;-65
2021/03/31 00:15:27;;;;;;;26.50;3.20;;;29.70;15.00;;;;;;5078414;28;20103;-65
2021/03/31 00:17:54;;;;;;;22.02;2.90;;;29.60;14.20;;;;;;5090302;28;20079;-64
2021/03/31 00:20:21;;;;;;;19.58;2.55;;;29.60;13.40;;;;;;5106133;27;20104;-65
2021/03/31 00:22:47;;;;;;;23.50;2.67;;;29.50;12.90;;;;;;5114556;27;20077;-66
2021/03/31 00:25:17;;;;;;;23.23;2.65;;;29.40;14.40;;;;;;5117452;27;20127;-65
2021/03/31 00:27:44;;;;;;;18.60;2.83;;;29.40;14.00;;;;;;5121370;27;20076;-66
2021/03/31 00:30:13;;;;;;;30.35;3.15;;;29.40;14.70;;;;;;5107466;27;20089;-64
2021/03/31 00:32:40;;;;;;;17.85;2.05;;;29.40;12.40;;;;;;5110037;27;20065;-65
2021/03/31 00:35:08;;;;;;;17.00;2.63;;;29.40;13.50;;;;;;5113431;27;20163;-65
2021/03/31 00:37:37;;;;;;;16.40;2.42;;;29.50;12.90;;;;;;5100470;27;20121;-65
2021/03/31 00:40:14;;;;;;;21.83;2.92;;;29.60;12.50;;;;;;5104124;27;20099;-64
2021/03/31 00:42:43;;;;;;;19.33;2.60;;;29.80;12.60;;;;;;5082890;28;20078;-66
2021/03/31 00:45:11;;;;;;;16.27;2.47;;;29.70;12.20;;;;;;5092683;28;20096;-66
2021/03/31 00:47:38;;;;;;;27.15;2.42;;;29.80;12.10;;;;;;5108063;27;20069;-64
2021/03/31 00:50:07;;;;;;;24.25;2.90;;;29.80;11.90;;;;;;5110487;27;20135;-66
2021/03/31 00:52:36;;;;;;;26.60;3.25;;;29.60;11.50;;;;;;5105486;27;20095;-65
2021/03/31 00:55:04;;;;;;;26.63;3.75;;;29.70;12.00;;;;;;5076247;28;20072;-65
2021/03/31 00:57:31;;;;;;;33.40;2.92;;;29.60;12.60;;;;;;5094271;27;20094;-65
2021/03/31 00:59:58;;;;;;;22.67;2.40;;;29.50;11.40;;;;;;5088011;28;20443;-65
2021/03/31 01:02:24;;;;;;;15.68;2.53;;;29.50;11.40;;;;;;5094355;27;20072;-65
2021/03/31 01:04:51;;;;;;;21.45;2.72;;;30.00;11.30;;;;;;5091311;27;20132;-65
2021/03/31 01:07:17;;;;;;;19.30;3.10;;;30.80;11.30;;;;;;5118196;27;20068;-66
2021/03/31 01:09:44;;;;;;;19.77;2.53;;;30.70;11.00;;;;;;5094520;28;20088;-64
2021/03/31 01:12:16;;;;;;;18.52;3.08;;;30.40;10.90;;;;;;5111785;27;20153;-64
2021/03/31 01:14:58;;;;;;;22.65;2.88;;;29.90;11.20;;;;;;5093558;28;20444;-67
2021/03/31 01:17:35;;;;;;;21.55;3.80;;;29.70;11.40;;;;;;5112148;27;20623;-66
2021/03/31 01:20:27;;;;;;;22.85;3.30;;;29.90;10.90;;;;;;5095381;27;20167;-65
2021/03/31 01:23:12;;;;;;;14.43;2.20;;;30.10;10.60;;;;;;5117654;27;20076;-65
2021/03/31 01:25:47;;;;;;;19.63;2.33;;;30.30;10.70;;;;;;5111865;27;20107;-62
2021/03/31 01:28:42;;;;;;;18.67;2.50;;;29.80;10.70;;;;;;5109868;27;20160;-63
2021/03/31 01:31:14;;;;;;;27.80;3.60;;;29.30;11.20;;;;;;5093087;28;20084;-65
2021/03/31 01:34:11;;;;;;;22.40;2.80;;;28.90;11.60;;;;;;5111659;27;20092;-66
2021/03/31 01:36:39;;;;;;;24.70;2.65;;;28.60;12.00;;;;;;5089168;28;20168;-64
2021/03/31 01:39:08;;;;;;;16.48;2.20;;;28.30;11.60;;;;;;5091725;27;20073;-65
2021/03/31 01:41:37;;;;;;;21.20;2.42;;;28.20;11.80;;;;;;5115390;27;20069;-64
2021/03/31 01:44:08;;;;;;;19.70;2.63;;;28.00;11.40;;;;;;5110427;27;20079;-64
2021/03/31 01:46:38;;;;;;;19.95;2.65;;;27.90;11.70;;;;;;5108495;27;20411;-64
2021/03/31 01:49:06;;;;;;;23.95;3.13;;;27.70;11.90;;;;;;5101307;28;20440;-64
2021/03/31 01:51:34;;;;;;;26.88;2.90;;;27.60;12.20;;;;;;5112452;27;20080;-65
2021/03/31 01:54:02;;;;;;;29.92;3.45;;;27.40;12.10;;;;;;5107104;27;20075;-65
2021/03/31 01:56:29;;;;;;;25.40;3.45;;;27.30;12.90;;;;;;5098744;28;20165;-64
2021/03/31 01:58:57;;;;;;;24.40;3.38;;;27.20;14.10;;;;;;5115204;28;20415;-64
2021/03/31 02:01:25;;;;;;;30.83;2.90;;;27.10;16.70;;;;;;5123107;27;20548;-64
2021/03/31 02:03:54;;;;;;;23.38;3.22;;;26.90;16.20;;;;;;5103434;28;20479;-65
2021/03/31 02:06:25;;;;;;;29.17;3.50;;;26.70;15.70;;;;;;5114995;28;20091;-65
2021/03/31 02:08:52;;;;;;;28.88;3.38;;;26.50;15.80;;;;;;5079827;28;20528;-65
2021/03/31 02:11:19;;;;;;;21.63;3.55;;;26.30;15.60;;;;;;5111464;28;20135;-64
2021/03/31 02:13:49;;;;;;;29.42;3.38;;;26.30;16.20;;;;;;5113189;28;21391;-65
2021/03/31 02:16:17;;;;;;;24.42;3.95;;;26.10;15.70;;;;;;5079449;28;20157;-65
2021/03/31 02:18:45;;;;;;;29.00;4.50;;;25.90;16.50;;;;;;5117909;28;20064;-65
2021/03/31 02:21:14;;;;;;;26.90;3.60;;;25.90;17.30;;;;;;5113311;28;20068;-65
2021/03/31 02:23:42;;;;;;;24.17;3.42;;;25.80;17.00;;;;;;5092191;27;20132;-66
2021/03/31 02:26:09;;;;;;;32.15;3.92;;;25.70;17.80;;;;;;5121414;27;20072;-65
2021/03/31 02:28:35;;;;;;;27.30;4.03;;;25.60;17.50;;;;;;5120654;27;20103;-65
2021/03/31 02:31:05;;;;;;;28.23;4.32;;;25.40;17.30;;;;;;5119169;27;20205;-65
2021/03/31 02:33:34;;;;;;;26.63;3.03;;;25.30;17.10;;;;;;5120408;27;20072;-65
2021/03/31 02:36:01;;;;;;;30.95;3.30;;;25.10;17.20;;;;;;5114077;27;20099;-65
2021/03/31 02:38:29;;;;;;;20.50;3.58;;;25.00;17.40;;;;;;5118615;27;20454;-65
2021/03/31 02:40:57;;;;;;;25.77;3.45;;;24.90;18.30;;;;;;5117367;27;20069;-65
2021/03/31 02:43:26;;;;;;;31.15;3.50;;;24.80;19.10;;;;;;5111883;27;21291;-65
2021/03/31 02:45:55;;;;;;;21.70;3.00;;;24.70;19.00;;;;;;5104437;28;20129;-65
2021/03/31 02:48:24;;;;;;;30.75;4.72;;;24.60;20.10;;;;;;5115431;27;20076;-65
2021/03/31 02:50:57;;;;;;;29.63;3.58;;;24.50;19.50;;;;;;5109704;27;20087;-64
2021/03/31 02:53:25;;;;;;;36.63;4.18;;;24.50;19.00;;;;;;5113619;27;20213;-64
2021/03/31 02:55:52;;;;;;;28.20;3.97;;;24.30;19.20;;;;;;5111068;27;20513;-65
2021/03/31 02:58:19;;;;;;;32.92;4.10;;;24.30;19.60;;;;;;5115883;27;20073;-65
2021/03/31 03:00:46;;;;;;;31.33;3.75;;;24.20;20.70;;;;;;5119343;27;20076;-64
2021/03/31 03:03:13;;;;;;;32.05;4.53;;;24.10;20.30;;;;;;5111006;27;20068;-63
2021/03/31 03:05:40;;;;;;;34.63;4.00;;;24.00;19.80;;;;;;5106054;27;20080;-63
2021/03/31 03:08:06;;;;;;;21.73;3.35;;;23.90;21.50;;;;;;5109949;27;20120;-64
2021/03/31 03:10:33;;;;;;;21.75;3.25;;;23.90;21.50;;;;;;5106631;28;20104;-64
2021/03/31 03:13:01;;;;;;;30.73;3.78;;;23.80;21.20;;;;;;5095453;27;20520;-64
2021/03/31 03:15:29;;;;;;;35.10;4.03;;;23.70;21.20;;;;;;5117000;27;20072;-65
2021/03/31 03:17:56;;;;;;;30.77;3.72;;;23.60;21.30;;;;;;5114183;27;20079;-66
2021/03/31 03:20:24;;;;;;;25.83;3.60;;;23.60;21.50;;;;;;5083006;27;20567;-64
2021/03/31 03:22:54;;;;;;;29.83;4.05;;;23.50;21.90;;;;;;5113113;27;20075;-64
2021/03/31 03:25:24;;;;;;;52.13;6.20;;;23.40;22.00;;;;;;5109973;27;20072;-64
2021/03/31 03:27:51;;;;;;;97.45;12.60;;;23.30;22.00;;;;;;5081984;28;20097;-69
2021/03/31 03:30:21;;;;;;;108.82;20.65;;;23.20;22.00;;;;;;5114490;27;20088;-65
2021/03/31 03:32:50;;;;;;;93.63;15.85;;;23.10;22.60;;;;;;5101157;27;20424;-63
2021/03/31 03:35:24;;;;;;;90.88;13.93;;;23.10;22.60;;;;;;5104676;27;20076;-63
2021/03/31 03:37:51;;;;;;;86.25;10.63;;;23.00;23.00;;;;;;5098372;28;20520;-64
2021/03/31 03:40:21;;;;;;;75.95;10.73;;;22.90;22.80;;;;;;5106706;27;20086;-66
2021/03/31 03:42:48;;;;;;;70.22;11.13;;;22.80;23.10;;;;;;5116440;27;20082;-66
2021/03/31 03:45:16;;;;;;;76.60;11.02;;;22.70;23.30;;;;;;5108583;27;20069;-64
2021/03/31 03:47:43;;;;;;;60.65;9.02;;;22.50;23.10;;;;;;5097763;27;20106;-65
2021/03/31 03:50:12;;;;;;;68.50;8.32;;;22.50;23.50;;;;;;5108610;27;20561;-63
2021/03/31 03:52:39;;;;;;;47.67;8.10;;;22.50;23.60;;;;;;5108940;27;20084;-64
2021/03/31 03:55:07;;;;;;;55.17;7.03;;;22.40;23.60;;;;;;5106548;27;20076;-63
2021/03/31 03:57:34;;;;;;;31.55;5.70;;;22.40;23.50;;;;;;5100463;27;20076;-64
2021/03/31 04:00:10;;;;;;;39.95;5.40;;;22.30;23.60;;;;;;5127239;27;20155;-62
2021/03/31 04:02:36;;;;;;;41.05;5.57;;;22.20;23.80;;;;;;5133970;27;20090;-63
2021/03/31 04:05:04;;;;;;;36.35;5.22;;;22.20;23.50;;;;;;5103389;27;20079;-64
2021/03/31 04:07:30;;;;;;;36.70;4.75;;;22.10;23.70;;;;;;5114629;27;20068;-63
2021/03/31 04:09:59;;;;;;;34.50;4.65;;;22.00;23.70;;;;;;5104108;27;20557;-64
2021/03/31 04:12:26;;;;;;;28.42;4.82;;;22.00;23.80;;;;;;5066230;28;20085;-64
2021/03/31 04:14:54;;;;;;;28.98;4.88;;;21.90;23.90;;;;;;5051380;28;20521;-63
2021/03/31 04:17:22;;;;;;;46.60;5.72;;;21.90;24.00;;;;;;5052548;28;20077;-65
2021/03/31 04:19:53;;;;;;;27.20;4.93;;;21.80;24.00;;;;;;5052130;28;20521;-65
2021/03/31 04:22:20;;;;;;;30.45;5.30;;;21.80;24.20;;;;;;5068806;28;20069;-65
2021/03/31 04:24:47;;;;;;;33.33;5.63;;;21.70;24.10;;;;;;5068643;28;20116;-63
2021/03/31 04:27:15;;;;;;;50.50;6.03;;;21.60;24.40;;;;;;5066887;28;20402;-63
2021/03/31 04:29:47;;;;;;;42.40;5.28;;;21.60;24.70;;;;;;5050200;28;20093;-64
2021/03/31 04:32:18;;;;;;;38.03;5.40;;;21.50;24.60;;;;;;5050738;28;20533;-62
2021/03/31 04:34:45;;;;;;;42.33;5.03;;;21.50;24.70;;;;;;5067467;28;20124;-64
2021/03/31 04:37:14;;;;;;;33.38;5.47;;;21.50;24.70;;;;;;5065493;28;20070;-62
2021/03/31 04:39:44;;;;;;;50.38;12.88;;;21.40;25.20;;;;;;5061036;28;20073;-61
2021/03/31 04:42:11;;;;;;;42.65;10.88;;;21.30;25.10;;;;;;5070425;28;20073;-64
2021/03/31 04:44:38;;;;;;;41.83;6.43;;;21.20;24.80;;;;;;5058226;28;20077;-65
2021/03/31 04:47:05;;;;;;;32.92;5.10;;;21.10;24.70;;;;;;5066930;28;20172;-65
2021/03/31 04:49:32;;;;;;;22.05;5.65;;;21.00;24.70;;;;;;5053929;28;20104;-63
2021/03/31 04:51:59;;;;;;;33.35;6.32;;;21.00;25.10;;;;;;5052377;28;20185;-63
2021/03/31 04:54:25;;;;;;;30.15;5.55;;;21.00;25.10;;;;;;5068031;28;20120;-63
2021/03/31 04:56:52;;;;;;;28.33;5.93;;;20.90;25.10;;;;;;5049904;28;20112;-62
2021/03/31 04:59:21;;;;;;;36.25;6.80;;;20.90;24.70;;;;;;5069107;28;20073;-64
2021/03/31 05:01:48;;;;;;;41.22;6.10;;;20.90;24.60;;;;;;5049526;28;20123;-63
2021/03/31 05:04:14;;;;;;;39.22;6.75;;;20.80;24.50;;;;;;5049550;28;20484;-64
2021/03/31 05:06:41;;;;;;;37.47;6.28;;;20.80;24.60;;;;;;5070403;28;20398;-64
2021/03/31 05:09:08;;;;;;;37.28;6.28;;;20.80;24.60;;;;;;5068150;28;20073;-64
2021/03/31 05:11:34;;;;;;;32.42;6.63;;;20.70;24.80;;;;;;5082918;28;20208;-64
2021/03/31 05:14:01;;;;;;;30.75;5.88;;;20.70;24.10;;;;;;5088569;28;20091;-63
2021/03/31 05:16:28;;;;;;;37.88;6.65;;;20.70;23.90;;;;;;5088838;28;20146;-63
2021/03/31 05:18:54;;;;;;;37.35;6.18;;;20.60;23.40;;;;;;5070120;28;20074;-64
2021/03/31 05:21:21;;;;;;;42.47;6.25;;;20.60;23.10;;;;;;5088104;28;20076;-63
2021/03/31 05:23:47;;;;;;;38.90;6.40;;;20.60;23.10;;;;;;5087441;28;20548;-64
2021/03/31 05:26:16;;;;;;;42.88;5.75;;;20.60;22.90;;;;;;5103438;28;20505;-64
2021/03/31 05:28:42;;;;;;;42.53;5.15;;;20.50;22.70;;;;;;5087816;28;20072;-63
2021/03/31 05:31:09;;;;;;;42.00;5.63;;;20.40;22.40;;;;;;5088128;28;20097;-64
2021/03/31 05:33:36;;;;;;;36.10;6.22;;;20.40;22.60;;;;;;5088516;28;20069;-64
2021/03/31 05:36:02;;;;;;;38.45;5.32;;;20.30;22.50;;;;;;5089340;28;20080;-62
2021/03/31 05:38:29;;;;;;;31.27;4.95;;;20.30;22.40;;;;;;5089858;28;20069;-63
2021/03/31 05:40:59;;;;;;;31.98;5.55;;;20.30;22.30;;;;;;5088014;28;20537;-63
2021/03/31 05:43:26;;;;;;;33.33;5.05;;;20.20;22.40;;;;;;5087276;28;20076;-63
2021/03/31 05:45:55;;;;;;;34.72;5.25;;;20.10;22.40;;;;;;5069956;28;20492;-64
2021/03/31 05:48:23;;;;;;;38.38;5.70;;;20.10;22.60;;;;;;5086558;28;20167;-63
2021/03/31 05:50:49;;;;;;;50.22;5.93;;;20.10;22.70;;;;;;5087110;28;20093;-65
2021/03/31 05:53:16;;;;;;;39.45;5.53;;;20.10;22.90;;;;;;5087365;28;20068;-63
2021/03/31 05:55:42;;;;;;;40.88;5.95;;;20.00;23.20;;;;;;5068875;28;20077;-64
2021/03/31 05:58:09;;;;;;;45.72;6.20;;;20.00;23.20;;;;;;5070104;28;20073;-63
2021/03/31 06:00:36;;;;;;;39.97;6.45;;;19.90;23.30;;;;;;5071975;28;20517;-63
2021/03/31 06:03:05;;;;;;;41.15;5.97;;;19.90;23.60;;;;;;5088032;28;20068;-63
2021/03/31 06:05:32;;;;;;;29.88;5.65;;;19.80;23.90;;;;;;5070626;28;20072;-64
2021/03/31 06:07:59;;;;;;;39.35;7.03;;;19.80;24.10;;;;;;5088567;28;20072;-65
2021/03/31 06:10:30;;;;;;;43.72;5.50;;;19.70;24.10;;;;;;5088217;28;20164;-64
2021/03/31 06:13:00;;;;;;;37.70;5.70;;;19.60;24.00;;;;;;5089498;28;20406;-63
2021/03/31 06:15:42;;;;;;;40.17;5.95;;;19.60;23.70;;;;;;5087025;28;20079;-62
2021/03/31 06:18:09;;;;;;;23.88;5.10;;;19.60;23.80;;;;;;5070512;28;20077;-62
2021/03/31 06:21:00;;;;;;;28.45;5.43;;;19.60;24.10;;;;;;5087503;28;20068;-61
2021/03/31 06:26:23;;;;;;;28.85;5.22;;;19.40;23.80;;;;;;5086141;28;20069;-63
2021/03/31 06:28:56;;;;;;;31.73;5.32;;;19.40;23.80;;;;;;5086372;28;20126;-64
2021/03/31 06:31:27;;;;;;;33.13;4.90;;;19.30;24.00;;;;;;5068350;28;20085;-62
2021/03/31 06:33:54;;;;;;;24.95;4.70;;;19.30;24.90;;;;;;5085889;28;20425;-62
2021/03/31 06:36:35;;;;;;;28.70;5.18;;;19.30;24.50;;;;;;5070366;28;20159;-63
2021/03/31 06:39:15;;;;;;;41.90;6.13;;;19.30;24.80;;;;;;5088720;28;20104;-62
2021/03/31 06:41:59;;;;;;;21.75;4.63;;;19.20;24.50;;;;;;5087326;28;20072;-60
2021/03/31 06:44:44;;;;;;;19.15;4.80;;;19.00;24.40;;;;;;5086462;28;20115;-61
2021/03/31 06:49:38;;;;;;;27.80;5.10;;;18.90;23.20;;;;;;5086068;28;20097;-63
2021/03/31 06:52:06;;;;;;;23.42;4.30;;;18.80;23.20;;;;;;5086545;28;20080;-63
2021/03/31 06:54:50;;;;;;;23.42;4.45;;;18.80;23.70;;;;;;5087100;28;20105;-62
2021/03/31 06:57:32;;;;;;;19.73;4.53;;;18.80;23.40;;;;;;5071523;28;20583;-62
2021/03/31 06:59:59;;;;;;;21.70;4.53;;;18.80;22.50;;;;;;5068573;28;20085;-61
2021/03/31 07:02:28;;;;;;;22.92;4.72;;;18.80;22.10;;;;;;5070337;28;20081;-61
2021/03/31 07:04:56;;;;;;;25.35;5.65;;;18.80;22.10;;;;;;5085235;28;20068;-61
2021/03/31 07:07:31;;;;;;;34.70;5.25;;;18.80;21.90;;;;;;5085844;28;20077;-61
2021/03/31 07:10:16;;;;;;;31.50;6.00;;;18.80;22.10;;;;;;5089314;28;20084;-61
2021/03/31 07:12:48;;;;;;;39.90;6.60;;;18.80;23.00;;;;;;5074228;28;20096;-60
2021/03/31 07:15:16;;;;;;;30.35;6.07;;;18.90;23.10;;;;;;5090219;28;20072;-62
2021/03/31 07:17:54;;;;;;;33.53;6.03;;;18.80;23.00;;;;;;5073374;28;20114;-61
2021/03/31 07:20:26;;;;;;;46.28;7.35;;;18.70;22.80;;;;;;5089195;28;20065;-61
2021/03/31 07:22:54;;;;;;;39.47;7.47;;;18.60;22.50;;;;;;5091134;28;20072;-62
2021/03/31 07:25:25;;;;;;;49.17;7.53;;;18.60;23.10;;;;;;5089231;28;20067;-60
2021/03/31 07:27:54;;;;;;;34.58;7.28;;;18.60;23.10;;;;;;5091248;28;20085;-61
2021/03/31 07:30:23;;;;;;;35.97;6.68;;;18.60;24.20;;;;;;5090005;28;20147;-61
2021/03/31 07:33:03;;;;;;;40.30;6.75;;;18.60;24.00;;;;;;5089538;28;20445;-62
2021/03/31 07:35:33;;;;;;;35.40;7.45;;;18.50;24.00;;;;;;5090202;28;20100;-62
2021/03/31 07:38:03;;;;;;;42.05;7.30;;;18.30;24.20;;;;;;5071766;28;20081;-62
2021/03/31 07:40:31;;;;;;;45.38;7.75;;;18.20;24.40;;;;;;5072343;28;20595;-62
2021/03/31 07:43:08;;;;;;;35.22;7.93;;;18.20;24.20;;;;;;5091014;28;20068;-60
2021/03/31 07:45:56;;;;;;;54.30;7.40;;;18.10;24.40;;;;;;5089643;28;20559;-61
2021/03/31 07:48:24;;;;;;;45.45;7.15;;;18.00;24.40;;;;;;5088723;28;20111;-62
2021/03/31 07:50:50;;;;;;;41.83;7.15;;;18.00;24.50;;;;;;5085392;28;20089;-61
2021/03/31 07:53:16;;;;;;;;;;;17.90;24.80;;;;;;5090229;28;20077;-60
2021/03/31 07:55:52;;;;;;;35.67;7.22;;;17.90;24.80;;;;;;5071657;28;20035;-60
2021/03/31 07:58:28;;;;;;;38.70;7.47;;;17.90;25.00;;;;;;5089145;28;20168;-61
2021/03/31 08:01:11;;;;;;;44.63;9.43;;;17.90;25.10;;;;;;5089159;28;20080;-62
2021/03/31 08:03:41;;;;;;;29.85;7.13;;;17.80;24.70;;;;;;5088697;28;20524;-62
2021/03/31 08:06:12;;;;;;;19.35;4.47;;;17.80;23.00;;;;;;5086801;28;20556;-62
2021/03/31 08:08:45;;;;;;;21.00;3.55;;;17.70;21.70;;;;;;5089658;28;20111;-62
2021/03/31 08:11:37;;;;;;;15.93;3.17;;;17.70;21.60;;;;;;5089123;28;20127;-62
2021/03/31 08:14:09;;;;;;;18.88;2.50;;;17.70;20.10;;;;;;5088614;28;20073;-61
2021/03/31 08:16:50;;;;;;;10.43;2.20;;;17.70;18.90;;;;;;5089975;28;20069;-62
2021/03/31 08:19:31;;;;;;;14.00;2.53;;;17.70;18.90;;;;;;5070680;28;20072;-61
2021/03/31 08:22:18;;;;;;;14.93;2.90;;;17.60;18.80;;;;;;5088551;28;20155;-62
2021/03/31 08:24:46;;;;;;;;;;;17.70;19.00;;;;;;5089609;28;20426;-62
2021/03/31 08:27:15;;;;;;;21.25;3.08;;;17.70;18.80;;;;;;5088293;28;19956;-61
2021/03/31 08:29:44;;;;;;;14.38;2.40;;;17.70;19.20;;;;;;5087729;28;20126;-62
2021/03/31 08:32:11;;;;;;;15.05;2.80;;;17.70;18.50;;;;;;5087122;28;20064;-62
2021/03/31 08:34:38;;;;;;;20.67;3.05;;;17.60;18.80;;;;;;5071400;28;20551;-62
2021/03/31 08:37:18;;;;;;;13.48;2.83;;;17.70;19.20;;;;;;5089648;28;20073;-62
2021/03/31 08:39:44;;;;;;;20.10;3.55;;;17.60;18.60;;;;;;5107162;27;20075;-61
2021/03/31 08:42:11;;;;;;;;;;;17.60;18.40;;;;;;5116377;27;20100;-62
2021/03/31 08:44:39;;;;;;;11.63;3.50;;;17.60;18.90;;;;;;5114069;27;19955;-61
2021/03/31 08:47:10;;;;;;;20.20;3.97;;;17.60;18.70;;;;;;5117985;27;20415;-61
2021/03/31 08:49:38;;;;;;;23.00;3.70;;;17.60;19.20;;;;;;5096444;27;20095;-61
2021/03/31 08:52:08;;;;;;;24.58;4.20;;;17.60;19.90;;;;;;5091518;27;20076;-62
2021/03/31 08:55:02;;;;;;;25.17;4.07;;;17.60;20.40;;;;;;5118229;27;20182;-61
2021/03/31 08:57:31;;;;;;;30.55;4.93;;;17.60;20.80;;;;;;5111683;27;20086;-61
2021/03/31 09:00:00;;;;;;;39.42;5.80;;;17.60;20.90;;;;;;5114225;27;20147;-61
2021/03/31 09:02:30;;;;;;;41.05;6.85;;;17.50;21.50;;;;;;5095667;27;20074;-62
2021/03/31 09:04:58;;;;;;;43.47;8.80;;;17.50;21.60;;;;;;5113442;27;20099;-61
2021/03/31 09:07:25;;;;;;;58.45;8.55;;;17.40;22.40;;;;;;5112857;27;20080;-61
2021/03/31 09:09:52;;;;;;;65.72;11.20;;;17.40;22.60;;;;;;5116654;27;20575;-60
2021/03/31 09:12:25;;;;;;;51.75;10.38;;;17.30;23.20;;;;;;5114858;27;20115;-60
2021/03/31 09:14:53;;;;;;;53.30;11.80;;;17.30;22.90;;;;;;5117270;27;20116;-60
2021/03/31 09:17:23;;;;;;;57.65;13.45;;;17.20;22.70;;;;;;5112269;27;20159;-61
2021/03/31 09:19:56;;;;;;;62.03;14.02;;;17.20;23.00;;;;;;5120435;27;20072;-61
2021/03/31 09:22:28;;;;;;;68.35;13.63;;;17.10;22.60;;;;;;5116356;27;20071;-61
2021/03/31 09:25:00;;;;;;;64.78;12.88;;;17.00;22.70;;;;;;5094406;27;20076;-60
2021/03/31 09:27:29;;;;;;;47.20;11.63;;;17.00;22.40;;;;;;5113157;27;20097;-61
2021/03/31 09:29:59;;;;;;;53.92;12.23;;;17.00;22.60;;;;;;5116861;27;20441;-61
2021/03/31 09:32:33;;;;;;;51.53;11.70;;;17.00;22.70;;;;;;5113852;27;20079;-61
2021/03/31 09:35:13;;;;;;;45.60;11.45;;;17.00;22.40;;;;;;5113073;27;20072;-62
2021/03/31 09:37:46;;;;;;;45.05;11.00;;;16.90;22.20;;;;;;5112973;27;20076;-61
2021/03/31 09:40:18;;;;;;;51.53;11.55;;;17.00;23.20;;;;;;5120486;27;20076;-61
2021/03/31 09:42:45;;;;;;;42.10;11.00;;;16.90;22.10;;;;;;5111645;27;20276;-62
2021/03/31 09:45:13;;;;;;;40.30;9.68;;;16.80;21.80;;;;;;5114862;27;20094;-63
2021/03/31 09:47:41;;;;;;;47.00;10.60;;;16.70;22.10;;;;;;5112550;27;20072;-61
2021/03/31 09:50:12;;;;;;;47.15;9.45;;;16.60;22.00;;;;;;5118257;27;20091;-62
2021/03/31 09:52:39;;;;;;;54.25;9.32;;;16.60;21.90;;;;;;5119559;27;20079;-61
2021/03/31 09:55:09;;;;;;;43.83;8.90;;;16.50;21.60;;;;;;5118261;27;20080;-63
2021/03/31 09:57:38;;;;;;;48.60;8.50;;;16.60;21.50;;;;;;5117148;27;20088;-63
2021/03/31 10:00:11;;;;;;;47.97;9.05;;;16.60;20.80;;;;;;5116533;28;20539;-60
2021/03/31 10:02:39;;;;;;;35.58;6.95;;;16.60;20.50;;;;;;5115786;28;20444;-62
2021/03/31 10:05:09;;;;;;;38.60;7.68;;;16.70;20.70;;;;;;5116072;28;20064;-62
2021/03/31 10:07:35;;;;;;;37.70;6.85;;;16.70;20.50;;;;;;5116981;28;20085;-61
2021/03/31 10:10:03;;;;;;;;;;;16.70;20.20;;;;;;5116165;28;20136;-63
2021/03/31 10:12:31;;;;;;;;;;;16.70;20.50;;;;;;5115363;28;19987;-61
2021/03/31 10:14:59;;;;;;;30.45;6.57;;;16.70;21.10;;;;;;5093986;28;19956;-62
2021/03/31 10:17:28;;;;;;;23.33;5.75;;;16.60;20.20;;;;;;5108116;28;20069;-62
2021/03/31 10:20:17;;;;;;;29.20;5.40;;;16.60;20.60;;;;;;5093754;28;20067;-61
2021/03/31 10:22:53;;;;;;;26.70;5.25;;;16.50;20.00;;;;;;5114044;28;20057;-60
2021/03/31 10:25:30;;;;;;;37.42;5.47;;;16.60;19.70;;;;;;5113417;28;20201;-61
2021/03/31 10:28:00;;;;;;;27.63;5.60;;;16.60;19.40;;;;;;5112344;28;20071;-61
2021/03/31 10:30:30;;;;;;;23.77;5.45;;;16.50;19.50;;;;;;5112713;28;20187;-62
2021/03/31 10:32:58;;;;;;;34.58;5.07;;;16.50;19.90;;;;;;5091790;28;20072;-62
2021/03/31 10:35:49;;;;;;;23.67;4.97;;;16.40;19.60;;;;;;5113282;28;20496;-61
2021/03/31 10:46:48;;;;;;;23.50;4.57;;;16.50;19.00;;;;;;5070600;28;20108;-60
2021/03/31 10:52:17;;;;;;;;;;;16.50;19.40;;;;;;5117701;27;20076;-61
2021/03/31 10:54:43;;;;;;;20.27;3.92;;;16.60;18.20;;;;;;5117310;27;19959;-60
2021/03/31 10:57:12;;;;;;;;;;;16.60;17.70;;;;;;5120127;27;20087;-62
2021/03/31 10:59:40;;;;;;;12.98;2.97;;;16.60;17.30;;;;;;5121437;27;20372;-62
2021/03/31 11:02:07;;;;;;;14.35;2.97;;;16.70;17.20;;;;;;5118525;27;20077;-61
2021/03/31 11:04:34;;;;;;;10.30;2.83;;;16.70;16.90;;;;;;5096104;27;20080;-62
2021/03/31 11:07:01;;;;;;;12.25;2.83;;;16.80;16.90;;;;;;5111895;27;20512;-61
2021/03/31 11:09:30;;;;;;;11.20;2.95;;;16.80;17.00;;;;;;5116709;27;20092;-62
2021/03/31 11:11:57;;;;;;;14.10;3.08;;;16.80;17.10;;;;;;5095401;27;20116;-62
2021/03/31 11:14:24;;;;;;;14.55;2.90;;;16.80;17.40;;;;;;5069804;28;20112;-61
2021/03/31 11:19:42;;;;;;;;;;;16.90;17.80;;;;;;5093267;28;20588;-62
2021/03/31 11:27:38;;;;;;;16.50;2.35;;;16.80;18.70;;;;;;5085830;28;20087;-61
2021/03/31 11:30:08;;;;;;;;;;;16.80;18.50;;;;;;5094062;28;20084;-62
2021/03/31 11:32:34;;;;;;;14.75;2.55;;;16.90;18.70;;;;;;5086301;28;19956;-62
2021/03/31 11:35:01;;;;;;;;;;;16.80;18.50;;;;;;5087217;28;20096;-62
2021/03/31 11:37:27;;;;;;;16.80;2.60;;;16.90;18.80;;;;;;5066417;28;20409;-63
2021/03/31 11:39:53;;;;;;;;;;;16.90;19.10;;;;;;5088373;28;20072;-62
2021/03/31 11:42:20;;;;;;;15.25;2.35;;;16.80;19.20;;;;;;5087392;28;19961;-62
2021/03/31 11:44:46;;;;;;;;;;;16.80;19.40;;;;;;5088920;28;20073;-62
2021/03/31 11:47:12;;;;;;;15.80;2.60;;;16.80;19.60;;;;;;5089007;28;21335;-63
2021/03/31 11:49:38;;;;;;;;;;;16.80;19.60;;;;;;5090442;28;20290;-63
2021/03/31 11:52:05;;;;;;;13.23;2.40;;;16.80;19.80;;;;;;5070656;28;19964;-62
2021/03/31 11:54:32;;;;;;;14.85;3.20;;;16.70;19.80;;;;;;5087266;28;20529;-62
2021/03/31 11:56:58;;;;;;;;;;;16.70;19.80;;;;;;5087776;28;20080;-63
2021/03/31 11:59:24;;;;;;;20.85;3.00;;;16.70;19.90;;;;;;5088741;28;19960;-62
2021/03/31 12:01:50;;;;;;;;;;;16.60;19.90;;;;;;5088362;28;20079;-63
2021/03/31 12:04:17;;;;;;;19.33;3.08;;;16.60;19.90;;;;;;5088810;28;20336;-62
2021/03/31 12:06:44;;;;;;;;;;;16.60;19.50;;;;;;5086563;28;20069;-63
2021/03/31 12:09:11;;;;;;;12.40;1.77;;;16.60;19.30;;;;;;5087406;28;20392;-62
2021/03/31 12:11:38;;;;;;;11.63;2.50;;;16.50;18.90;;;;;;5089713;28;20136;-62
2021/03/31 12:14:04;;;;;;;10.75;2.33;;;16.50;19.30;;;;;;5088603;28;20068;-64
2021/03/31 12:16:30;;;;;;;;;;;16.50;18.50;;;;;;5088680;28;20456;-61
2021/03/31 12:18:57;;;;;;;8.55;2.25;;;16.50;18.70;;;;;;5089495;28;19965;-61
2021/03/31 12:21:24;;;;;;;15.95;2.67;;;16.50;18.70;;;;;;5087338;28;20410;-61
2021/03/31 12:23:50;;;;;;;;;;;16.40;18.50;;;;;;5071512;28;20173;-63
2021/03/31 12:26:16;;;;;;;22.90;3.17;;;16.50;18.90;;;;;;5088983;28;21361;-63
2021/03/31 12:28:51;;;;;;;13.20;3.08;;;16.50;18.60;;;;;;5087640;28;20073;-62
2021/03/31 12:31:18;;;;;;;23.67;4.13;;;16.50;18.40;;;;;;5089226;28;20099;-62
2021/03/31 12:33:45;;;;;;;17.08;3.25;;;16.50;18.60;;;;;;5088562;28;20095;-60
2021/03/31 12:36:11;;;;;;;;;;;16.50;18.60;;;;;;5089930;28;20450;-61
2021/03/31 12:38:37;;;;;;;15.75;2.83;;;16.50;18.70;;;;;;5089738;28;19965;-62
2021/03/31 12:41:04;;;;;;;;;;;16.50;18.80;;;;;;5089496;28;20560;-61
2021/03/31 12:43:31;;;;;;;17.33;3.55;;;16.50;19.10;;;;;;5100310;28;19961;-62
2021/03/31 12:45:58;;;;;;;11.32;3.05;;;16.50;19.40;;;;;;5089163;28;20069;-63
2021/03/31 12:48:26;;;;;;;17.17;3.25;;;16.50;20.10;;;;;;5090050;28;20065;-61
2021/03/31 12:51:00;;;;;;;16.17;3.90;;;16.40;19.60;;;;;;5088976;28;20092;-62
2021/03/31 12:53:31;;;;;;;22.85;3.90;;;16.40;19.80;;;;;;5085285;28;20072;-62
2021/03/31 12:55:59;;;;;;;15.80;3.25;;;16.30;20.20;;;;;;5085674;28;20517;-63
2021/03/31 12:58:25;;;;;;;12.95;2.97;;;16.30;20.40;;;;;;5088257;28;20617;-61
2021/03/31 13:00:54;;;;;;;23.92;3.03;;;16.30;21.10;;;;;;5087379;28;20112;-62
2021/03/31 13:03:20;;;;;;;19.20;3.10;;;16.20;21.50;;;;;;5088417;28;20127;-62
2021/03/31 13:05:47;;;;;;;19.52;3.00;;;16.20;22.30;;;;;;5088156;28;20083;-61
2021/03/31 13:08:14;;;;;;;;;;;16.10;22.20;;;;;;5071778;28;20080;-62
2021/03/31 13:10:42;;;;;;;23.95;3.58;;;16.10;22.30;;;;;;5087036;28;20452;-62
2021/03/31 13:26:25;;;;;;;18.50;3.67;;;15.50;23.20;;;;;;5087256;28;20142;-61
2021/03/31 13:31:45;;;;;;;19.50;3.53;;;15.30;22.90;;;;;;5087130;28;20230;-63
2021/03/31 13:34:18;;;;;;;20.23;3.83;;;15.30;22.50;;;;;;5083488;28;20540;-63
2021/03/31 13:36:50;;;;;;;22.38;3.58;;;15.20;22.40;;;;;;5085782;28;20072;-63